Time;durP1;ratioP1;P1;durP2;ratioP2;P2;SDS_P1;SDS_P2;PMS_P1;PMS_P2;Temp;Humidity;BMP_temperature;BMP_pressure;BME280_temperature;BME280_humidity;BME280_pressure;Samples;Min_cycle;Max_cycle;Signal;HPM_P1;HPM_P2
2023/03/18 00:01:58;;;;;;;6.07;2.97;;;15.60;94.60;;;;;;5009251;28;20422;-87
2023/03/18 00:04:24;;;;;;;5.00;3.00;;;15.60;94.70;;;;;;4992779;28;20028;-87
2023/03/18 00:06:49;;;;;;;5.38;3.10;;;15.60;94.70;;;;;;4978058;28;20026;-86
2023/03/18 00:09:16;;;;;;;6.88;3.40;;;15.50;94.70;;;;;;5017057;28;20429;-87
2023/03/18 00:11:42;;;;;;;7.37;3.70;;;15.50;94.80;;;;;;5004025;28;20080;-87
2023/03/18 00:14:08;;;;;;;6.00;3.42;;;15.50;94.80;;;;;;4997667;28;20041;-86
2023/03/18 00:16:35;;;;;;;7.95;3.53;;;15.50;94.80;;;;;;4992339;28;20485;-87
2023/03/18 00:19:02;;;;;;;6.43;3.33;;;15.50;94.90;;;;;;4982172;28;20381;-87
2023/03/18 00:21:29;;;;;;;6.57;3.30;;;15.50;94.90;;;;;;4988945;28;20491;-87
2023/03/18 00:23:57;;;;;;;6.70;3.00;;;15.50;95.00;;;;;;4995751;28;20100;-87
2023/03/18 00:26:24;;;;;;;6.80;3.15;;;15.40;95.00;;;;;;4989323;28;20033;-89
2023/03/18 00:28:50;;;;;;;7.38;3.15;;;15.40;95.00;;;;;;5009874;28;20029;-88
2023/03/18 00:31:16;;;;;;;5.30;3.40;;;15.40;94.90;;;;;;5008746;28;20098;-90
2023/03/18 00:33:44;;;;;;;6.28;3.00;;;15.40;94.90;;;;;;4998482;28;20703;-90
2023/03/18 00:36:14;;;;;;;7.13;3.22;;;15.30;94.80;;;;;;4996307;28;20037;-90
2023/03/18 00:38:44;;;;;;;5.10;3.17;;;15.20;94.80;;;;;;4996621;28;20025;-88
2023/03/18 00:41:12;;;;;;;6.47;3.10;;;15.20;94.90;;;;;;5009473;28;20343;-90
2023/03/18 00:43:51;;;;;;;6.07;3.35;;;15.10;94.90;;;;;;4986315;28;20475;-88
2023/03/18 00:46:32;;;;;;;5.90;3.13;;;15.00;95.00;;;;;;4998035;28;20021;-90
2023/03/18 00:49:00;;;;;;;6.57;3.42;;;14.90;95.10;;;;;;5007146;28;20712;-89
2023/03/18 00:51:28;;;;;;;5.53;3.27;;;14.90;95.20;;;;;;4999351;28;20067;-88
2023/03/18 00:53:57;;;;;;;7.05;3.40;;;14.80;95.30;;;;;;4961155;28;20025;-89
2023/03/18 00:56:27;;;;;;;7.10;3.78;;;14.80;95.40;;;;;;5013920;28;20426;-91
2023/03/18 00:58:53;;;;;;;6.00;3.35;;;14.70;95.50;;;;;;4988213;28;20298;-88
2023/03/18 01:01:20;;;;;;;6.65;3.67;;;14.70;95.70;;;;;;4997763;28;20041;-89
2023/03/18 01:03:48;;;;;;;6.63;3.73;;;14.70;95.80;;;;;;4976622;28;20030;-88
2023/03/18 01:06:17;;;;;;;6.65;3.53;;;14.60;95.90;;;;;;4997463;28;20467;-89
2023/03/18 01:08:43;;;;;;;6.25;3.35;;;14.60;96.10;;;;;;4977894;28;20021;-88
2023/03/18 01:11:10;;;;;;;7.70;3.65;;;14.60;96.20;;;;;;4982076;28;20241;-89
2023/03/18 01:13:36;;;;;;;5.72;3.38;;;14.50;96.30;;;;;;5007153;28;20031;-87
2023/03/18 01:16:03;;;;;;;5.73;3.43;;;14.50;96.40;;;;;;4996235;28;20087;-89
2023/03/18 01:18:29;;;;;;;5.82;3.53;;;14.50;96.60;;;;;;4998050;28;20040;-90
2023/03/18 01:20:56;;;;;;;8.63;3.78;;;14.50;96.70;;;;;;5006213;28;20684;-89
2023/03/18 01:23:23;;;;;;;5.55;3.40;;;14.50;96.80;;;;;;4986392;28;20036;-90
2023/03/18 01:25:49;;;;;;;7.75;3.67;;;14.50;96.90;;;;;;4975848;28;20022;-88
2023/03/18 01:28:16;;;;;;;5.57;3.60;;;14.40;97.00;;;;;;5015004;28;20134;-90
2023/03/18 01:30:42;;;;;;;6.45;3.63;;;14.40;97.10;;;;;;4989000;28;20040;-89
2023/03/18 01:33:07;;;;;;;6.82;4.10;;;14.40;97.20;;;;;;4990378;28;20667;-88
2023/03/18 01:35:35;;;;;;;6.67;3.60;;;14.40;97.30;;;;;;4997895;28;20101;-88
2023/03/18 01:38:03;;;;;;;6.67;3.93;;;14.40;97.40;;;;;;4995943;28;20859;-89
2023/03/18 01:40:32;;;;;;;7.20;3.90;;;14.40;97.50;;;;;;4961401;28;20461;-89
2023/03/18 01:43:12;;;;;;;7.72;4.20;;;14.40;97.60;;;;;;4990869;28;20266;-89
2023/03/18 01:45:38;;;;;;;7.53;3.75;;;14.40;97.60;;;;;;4990182;28;20505;-89
2023/03/18 01:48:03;;;;;;;7.60;4.13;;;14.40;97.70;;;;;;4977710;28;20270;-89
2023/03/18 01:50:36;;;;;;;8.43;4.20;;;14.40;97.80;;;;;;4991034;28;20509;-90
2023/03/18 01:53:07;;;;;;;7.60;4.25;;;14.40;97.90;;;;;;4994856;28;20697;-89
2023/03/18 01:55:34;;;;;;;7.82;4.35;;;14.40;98.00;;;;;;4995424;28;20021;-89
2023/03/18 01:58:05;;;;;;;8.87;3.97;;;14.40;98.10;;;;;;4980196;28;20654;-88
2023/03/18 02:00:33;;;;;;;6.88;4.07;;;14.30;98.10;;;;;;4997099;28;20035;-90
2023/03/18 02:02:59;;;;;;;7.90;4.57;;;14.30;98.30;;;;;;4996438;28;20312;-88
2023/03/18 02:05:27;;;;;;;8.50;4.47;;;14.30;98.30;;;;;;5009591;28;20077;-89
2023/03/18 02:07:52;;;;;;;7.13;4.20;;;14.30;98.40;;;;;;4999923;28;20301;-90
2023/03/18 02:10:25;;;;;;;8.00;4.28;;;14.30;98.50;;;;;;4982261;28;20511;-90
2023/03/18 02:12:57;;;;;;;5.93;3.58;;;14.40;98.60;;;;;;4973582;28;20029;-90
2023/03/18 02:15:26;;;;;;;7.57;4.35;;;14.40;98.70;;;;;;4995735;28;20029;-89
2023/03/18 02:18:28;;;;;;;6.70;4.27;;;14.30;98.70;;;;;;4996484;28;20029;-88
2023/03/18 02:21:31;;;;;;;6.13;3.65;;;14.40;98.70;;;;;;4971224;28;20048;-89
2023/03/18 02:24:00;;;;;;;6.13;3.67;;;14.30;98.60;;;;;;4988734;28;20202;-90
2023/03/18 02:26:43;;;;;;;6.90;4.43;;;14.30;98.80;;;;;;5013134;28;20033;-89
2023/03/18 02:29:13;;;;;;;7.32;4.32;;;14.30;98.80;;;;;;4975629;28;20113;-92
2023/03/18 02:31:41;;;;;;;7.87;4.30;;;14.30;98.90;;;;;;4996227;28;20029;-89
2023/03/18 02:34:08;;;;;;;7.13;4.43;;;14.30;99.00;;;;;;4979205;28;20246;-91
2023/03/18 02:36:35;;;;;;;7.15;4.68;;;14.30;99.10;;;;;;4988430;28;20022;-89
2023/03/18 02:39:01;;;;;;;6.78;4.38;;;14.20;99.10;;;;;;4995507;28;20116;-90
2023/03/18 02:41:31;;;;;;;8.00;4.82;;;14.20;99.20;;;;;;4998575;28;20029;-90
2023/03/18 02:43:57;;;;;;;8.07;4.83;;;14.20;99.20;;;;;;4977442;28;20026;-90
2023/03/18 02:46:48;;;;;;;7.50;4.43;;;14.20;99.30;;;;;;5013968;28;20105;-91
2023/03/18 02:49:15;;;;;;;6.90;4.35;;;14.20;99.30;;;;;;4977119;28;20029;-90
2023/03/18 02:51:41;;;;;;;8.40;4.60;;;14.10;99.50;;;;;;4982402;28;20033;-91
2023/03/18 02:54:13;;;;;;;7.57;4.40;;;14.10;99.50;;;;;;5001097;28;20458;-93
2023/03/18 02:56:41;;;;;;;7.53;4.38;;;14.10;99.60;;;;;;4992285;28;20557;-90
2023/03/18 02:59:07;;;;;;;7.72;4.22;;;14.10;99.70;;;;;;4980519;28;20026;-90
2023/03/18 03:01:35;;;;;;;6.22;4.25;;;14.10;99.80;;;;;;4993233;28;20466;-90
2023/03/18 03:04:01;;;;;;;7.68;4.53;;;14.10;99.90;;;;;;4992854;28;20018;-91
2023/03/18 03:06:27;;;;;;;7.37;3.90;;;14.10;99.90;;;;;;4995824;28;20394;-90
2023/03/18 03:08:53;;;;;;;6.88;4.68;;;14.10;99.90;;;;;;4991428;28;20030;-91
2023/03/18 03:11:21;;;;;;;7.53;4.55;;;14.10;99.90;;;;;;4985778;28;20799;-89
2023/03/18 03:13:47;;;;;;;8.07;4.33;;;14.10;99.90;;;;;;4980923;28;20162;-91
2023/03/18 03:16:14;;;;;;;6.35;4.13;;;14.10;99.90;;;;;;5020060;28;20479;-91
2023/03/18 03:18:40;;;;;;;8.15;4.63;;;14.00;99.90;;;;;;4995630;28;20022;-89
2023/03/18 03:21:07;;;;;;;7.68;4.55;;;14.00;99.90;;;;;;4997673;28;20029;-90
2023/03/18 03:23:34;;;;;;;7.63;4.30;;;13.90;99.80;;;;;;4984692;28;20076;-90
2023/03/18 03:26:01;;;;;;;6.88;4.22;;;13.90;99.90;;;;;;5003601;28;20026;-91
2023/03/18 03:28:26;;;;;;;6.75;3.75;;;13.90;99.90;;;;;;4980910;28;20038;-91
2023/03/18 03:30:54;;;;;;;7.37;4.27;;;13.80;99.90;;;;;;4979444;28;20541;-90
2023/03/18 03:33:20;;;;;;;7.25;4.30;;;13.80;99.90;;;;;;4983250;28;20589;-90
2023/03/18 03:35:46;;;;;;;7.32;4.07;;;13.80;99.90;;;;;;4986866;28;20550;-88
2023/03/18 03:38:12;;;;;;;8.70;4.57;;;13.80;99.90;;;;;;4976371;28;20026;-90
2023/03/18 03:40:37;;;;;;;7.17;4.07;;;13.70;99.90;;;;;;4978441;28;20738;-89
2023/03/18 03:43:04;;;;;;;8.50;4.18;;;13.70;99.90;;;;;;4998436;28;20041;-91
2023/03/18 03:45:32;;;;;;;7.70;4.17;;;13.70;99.90;;;;;;4993906;28;20034;-89
2023/03/18 03:47:58;;;;;;;6.97;4.32;;;13.70;99.90;;;;;;4979977;28;20033;-89
2023/03/18 03:50:25;;;;;;;7.00;4.20;;;13.60;99.90;;;;;;4985516;28;20368;-90
2023/03/18 03:52:51;;;;;;;7.85;4.25;;;13.60;99.90;;;;;;4988499;28;20380;-91
2023/03/18 03:55:19;;;;;;;6.20;4.00;;;13.60;99.90;;;;;;4979683;28;20106;-92
2023/03/18 03:57:45;;;;;;;5.83;3.43;;;13.50;99.90;;;;;;4993905;28;20021;-90
2023/03/18 04:00:15;;;;;;;7.30;3.75;;;13.50;99.90;;;;;;4977264;28;20383;-91
2023/03/18 04:02:42;;;;;;;5.65;3.75;;;13.50;99.90;;;;;;5007321;28;20060;-90
2023/03/18 04:05:09;;;;;;;7.22;3.90;;;13.50;99.90;;;;;;4995108;28;20022;-91
2023/03/18 04:07:36;;;;;;;6.60;3.83;;;13.40;99.90;;;;;;4979113;28;20033;-90
2023/03/18 04:10:02;;;;;;;6.23;3.47;;;13.30;99.90;;;;;;4980178;28;20319;-92
2023/03/18 04:12:28;;;;;;;6.35;3.80;;;13.30;99.90;;;;;;4996629;28;20038;-88
2023/03/18 04:14:54;;;;;;;7.30;3.75;;;13.30;99.90;;;;;;4979937;28;20148;-90
2023/03/18 04:17:20;;;;;;;6.15;3.58;;;13.30;99.90;;;;;;4977597;28;20109;-92
2023/03/18 04:19:45;;;;;;;6.67;3.73;;;13.20;99.90;;;;;;4991638;28;20514;-91
2023/03/18 04:22:11;;;;;;;5.75;3.55;;;13.20;99.90;;;;;;4982827;28;20471;-90
2023/03/18 04:24:37;;;;;;;6.50;3.70;;;13.10;99.90;;;;;;4983679;28;20546;-89
2023/03/18 04:27:03;;;;;;;5.43;3.17;;;13.10;99.90;;;;;;4995196;28;20387;-89
2023/03/18 04:29:29;;;;;;;5.70;3.22;;;13.10;99.90;;;;;;4994332;28;20476;-89
2023/03/18 04:31:55;;;;;;;5.13;3.30;;;13.00;99.90;;;;;;5008567;28;20462;-90
2023/03/18 04:34:21;;;;;;;6.87;3.50;;;12.90;99.90;;;;;;4999857;28;20025;-89
2023/03/18 04:36:47;;;;;;;5.88;3.35;;;12.90;99.90;;;;;;5001134;28;20600;-89
2023/03/18 04:39:13;;;;;;;5.80;3.20;;;12.80;99.90;;;;;;4991211;28;20478;-90
2023/03/18 04:41:39;;;;;;;5.87;3.40;;;12.80;99.90;;;;;;4976848;28;20317;-90
2023/03/18 04:44:05;;;;;;;5.47;3.20;;;12.70;99.90;;;;;;4976911;28;20022;-89
2023/03/18 04:46:31;;;;;;;5.72;3.33;;;12.70;99.90;;;;;;4965183;28;20018;-88
2023/03/18 04:48:57;;;;;;;6.18;3.58;;;12.70;99.90;;;;;;4991150;28;20104;-92
2023/03/18 04:51:24;;;;;;;5.55;3.28;;;12.60;99.90;;;;;;4993056;28;20022;-89
2023/03/18 04:53:50;;;;;;;6.90;3.30;;;12.50;99.90;;;;;;4987899;28;20194;-91
2023/03/18 04:56:17;;;;;;;6.35;3.17;;;12.50;99.90;;;;;;4994309;28;20029;-91
2023/03/18 04:58:43;;;;;;;6.13;3.53;;;12.40;99.90;;;;;;4993705;28;20139;-90
2023/03/18 05:01:09;;;;;;;5.35;3.15;;;12.40;99.90;;;;;;4972790;28;20523;-91
2023/03/18 05:03:35;;;;;;;7.35;3.55;;;12.40;99.90;;;;;;4979384;28;20594;-89
2023/03/18 05:06:01;;;;;;;5.97;3.17;;;12.40;99.90;;;;;;5026734;28;20037;-90
2023/03/18 05:08:27;;;;;;;6.50;3.58;;;12.30;99.90;;;;;;4986771;28;20034;-89
2023/03/18 05:10:53;;;;;;;6.30;3.80;;;12.30;99.90;;;;;;4974611;28;20310;-90
2023/03/18 05:13:19;;;;;;;6.13;3.03;;;12.30;99.90;;;;;;4996713;28;20033;-90
2023/03/18 05:15:44;;;;;;;5.63;3.38;;;12.30;99.90;;;;;;4992457;28;20056;-91
2023/03/18 05:18:11;;;;;;;6.03;3.35;;;12.20;99.90;;;;;;4960869;28;20021;-91
2023/03/18 05:20:38;;;;;;;5.63;3.22;;;12.20;99.90;;;;;;5009024;28;20160;-89
2023/03/18 05:23:04;;;;;;;5.33;3.67;;;12.20;99.90;;;;;;4979288;28;20040;-90
2023/03/18 05:25:30;;;;;;;6.72;3.30;;;12.20;99.90;;;;;;4968903;28;20582;-89
2023/03/18 05:27:56;;;;;;;5.95;3.53;;;12.10;99.90;;;;;;5007155;28;20246;-89
2023/03/18 05:30:22;;;;;;;5.90;3.20;;;12.10;99.90;;;;;;4997191;28;20018;-89
2023/03/18 05:32:48;;;;;;;6.65;3.60;;;12.00;99.90;;;;;;4959207;28;20753;-89
2023/03/18 05:35:14;;;;;;;6.60;3.83;;;12.00;99.90;;;;;;4979715;28;20029;-89
2023/03/18 05:37:40;;;;;;;7.22;4.07;;;12.00;99.90;;;;;;4996174;28;20724;-91
2023/03/18 05:40:10;;;;;;;7.10;3.63;;;12.00;99.90;;;;;;5006746;28;20025;-90
2023/03/18 05:42:37;;;;;;;6.40;3.53;;;12.00;99.90;;;;;;4991809;28;20433;-88
2023/03/18 05:45:04;;;;;;;6.03;3.42;;;12.00;99.90;;;;;;4998348;28;20021;-89
2023/03/18 05:47:30;;;;;;;6.43;3.65;;;12.00;99.90;;;;;;4980467;28;20040;-88
2023/03/18 05:49:56;;;;;;;7.05;4.05;;;12.00;99.90;;;;;;4991550;28;20069;-90
2023/03/18 05:52:22;;;;;;;6.20;3.83;;;12.00;99.90;;;;;;4973261;28;20498;-89
2023/03/18 05:54:49;;;;;;;6.15;3.75;;;11.90;99.90;;;;;;4986698;28;20259;-90
2023/03/18 05:57:15;;;;;;;6.40;3.70;;;11.90;99.90;;;;;;4984408;28;20159;-89
2023/03/18 05:59:42;;;;;;;8.13;3.53;;;11.90;99.90;;;;;;4995925;28;20040;-90
2023/03/18 06:02:08;;;;;;;5.47;3.55;;;11.90;99.90;;;;;;4981225;28;20792;-89
2023/03/18 06:04:34;;;;;;;7.75;3.65;;;11.90;99.90;;;;;;4962939;28;20052;-89
2023/03/18 06:07:02;;;;;;;5.57;3.37;;;11.90;99.90;;;;;;4969076;28;20272;-89
2023/03/18 06:09:28;;;;;;;6.32;3.92;;;11.90;99.90;;;;;;4996981;28;20018;-90
2023/03/18 06:11:53;;;;;;;7.30;3.83;;;11.90;99.90;;;;;;4986347;28;20022;-89
2023/03/18 06:14:19;;;;;;;5.43;3.20;;;11.90;99.90;;;;;;5010666;28;20407;-90
2023/03/18 06:16:45;;;;;;;6.00;3.47;;;11.80;99.90;;;;;;5012836;28;20021;-89
2023/03/18 06:19:11;;;;;;;6.80;4.05;;;11.80;99.90;;;;;;4962415;28;21455;-89
2023/03/18 06:21:40;;;;;;;5.53;3.40;;;11.80;99.90;;;;;;4985141;28;20083;-89
2023/03/18 06:24:06;;;;;;;5.88;3.47;;;11.90;99.90;;;;;;4997202;28;20037;-89
2023/03/18 06:26:32;;;;;;;6.40;3.92;;;11.80;99.90;;;;;;4976643;28;20037;-89
2023/03/18 06:28:58;;;;;;;6.35;4.03;;;11.80;99.90;;;;;;5001203;28;20083;-89
2023/03/18 06:31:24;;;;;;;6.03;3.77;;;11.80;99.90;;;;;;5003393;28;20068;-89
2023/03/18 06:33:51;;;;;;;6.13;3.65;;;11.80;99.90;;;;;;4982938;28;20053;-89
2023/03/18 06:36:16;;;;;;;6.18;3.33;;;11.90;99.90;;;;;;4985549;28;20569;-90
2023/03/18 06:38:43;;;;;;;5.97;3.43;;;11.90;99.90;;;;;;4978340;28;20413;-89
2023/03/18 06:41:10;;;;;;;5.95;3.38;;;11.90;99.90;;;;;;4974458;28;20029;-92
2023/03/18 06:43:36;;;;;;;5.45;3.58;;;12.00;99.90;;;;;;4973252;28;20030;-89
2023/03/18 06:46:02;;;;;;;5.60;3.47;;;12.00;99.90;;;;;;4989146;28;20155;-90
2023/03/18 06:48:27;;;;;;;6.13;3.65;;;12.00;99.90;;;;;;4986218;28;20135;-89
2023/03/18 06:50:54;;;;;;;5.70;3.70;;;12.10;99.90;;;;;;5002415;28;20625;-89
2023/03/18 06:53:20;;;;;;;6.22;3.67;;;12.10;99.90;;;;;;4990886;28;21088;-88
2023/03/18 06:55:45;;;;;;;5.97;3.53;;;12.20;99.90;;;;;;4999643;28;20627;-89
2023/03/18 06:58:11;;;;;;;5.55;3.28;;;12.30;99.90;;;;;;4971460;28;20029;-90
2023/03/18 07:00:37;;;;;;;5.63;3.70;;;12.30;99.90;;;;;;4983146;28;20114;-89
2023/03/18 07:03:03;;;;;;;4.65;3.08;;;12.40;99.90;;;;;;4977096;28;20021;-88
2023/03/18 07:05:29;;;;;;;5.72;3.28;;;12.50;99.90;;;;;;4970350;28;20035;-89
2023/03/18 07:07:55;;;;;;;5.53;3.33;;;12.60;99.90;;;;;;4996742;28;20021;-89
2023/03/18 07:10:24;;;;;;;6.00;3.78;;;12.70;99.90;;;;;;4991659;28;20117;-89
2023/03/18 07:12:51;;;;;;;6.10;3.85;;;12.80;99.90;;;;;;5004907;28;20034;-88
2023/03/18 07:15:20;;;;;;;6.20;3.80;;;12.90;99.90;;;;;;4984158;28;20463;-88
2023/03/18 07:17:46;;;;;;;6.25;3.70;;;13.10;99.90;;;;;;5001958;28;20024;-89
2023/03/18 07:20:12;;;;;;;6.15;3.50;;;13.30;99.90;;;;;;4981290;28;21053;-90
2023/03/18 07:22:38;;;;;;;6.13;4.18;;;13.50;99.90;;;;;;4984124;28;20038;-89
2023/03/18 07:25:04;;;;;;;5.90;3.90;;;13.70;99.90;;;;;;4981969;28;20163;-89
2023/03/18 07:27:29;;;;;;;7.50;4.18;;;13.90;99.90;;;;;;5009267;28;20483;-91
2023/03/18 07:29:55;;;;;;;8.33;4.80;;;14.10;99.90;;;;;;4989646;28;20267;-91
2023/03/18 07:32:22;;;;;;;7.87;4.80;;;14.30;99.90;;;;;;5018627;28;20277;-90
2023/03/18 07:34:48;;;;;;;6.63;4.10;;;14.60;99.90;;;;;;4998169;28;20017;-88
2023/03/18 07:37:14;;;;;;;6.75;4.47;;;14.90;99.90;;;;;;4983020;28;20441;-87
2023/03/18 07:39:42;;;;;;;6.05;4.28;;;15.20;99.90;;;;;;4997981;28;20539;-87
2023/03/18 07:42:08;;;;;;;6.53;3.88;;;15.70;99.90;;;;;;4975796;28;20036;-89
2023/03/18 07:44:35;;;;;;;5.63;3.97;;;16.10;99.90;;;;;;4990646;28;20030;-88
2023/03/18 07:47:01;;;;;;;5.38;3.05;;;16.60;99.90;;;;;;4994686;28;20246;-89
2023/03/18 07:49:27;;;;;;;4.93;3.20;;;17.00;99.90;;;;;;4998182;28;20487;-88
2023/03/18 07:51:52;;;;;;;4.50;3.30;;;17.50;99.90;;;;;;4978628;28;20022;-88
2023/03/18 07:54:18;;;;;;;6.57;3.88;;;17.90;99.90;;;;;;5001834;28;20130;-88
2023/03/18 07:56:44;;;;;;;4.30;3.00;;;18.20;99.90;;;;;;4996108;28;20034;-90
2023/03/18 07:59:11;;;;;;;4.30;3.00;;;18.50;99.90;;;;;;4993754;28;20037;-89
2023/03/18 08:01:38;;;;;;;5.55;3.40;;;18.70;99.90;;;;;;4992867;28;20556;-89
2023/03/18 08:04:04;;;;;;;3.80;2.85;;;18.70;99.90;;;;;;5018560;28;20105;-85
2023/03/18 08:06:31;;;;;;;3.90;2.90;;;18.60;99.90;;;;;;4964206;28;20040;-88
2023/03/18 08:08:57;;;;;;;4.20;3.20;;;18.50;99.90;;;;;;5005917;28;20025;-87
2023/03/18 08:11:23;;;;;;;4.15;2.97;;;18.20;99.90;;;;;;4987857;28;20017;-88
2023/03/18 08:13:49;;;;;;;4.97;3.20;;;18.00;99.70;;;;;;5005036;28;20576;-88
2023/03/18 08:16:14;;;;;;;4.03;3.07;;;17.70;99.90;;;;;;4990197;28;20014;-87
2023/03/18 08:18:40;;;;;;;4.75;3.15;;;17.50;99.90;;;;;;5001711;28;20612;-83
2023/03/18 08:21:06;;;;;;;5.23;2.97;;;17.40;99.90;;;;;;5000235;28;20036;-81
2023/03/18 08:23:32;;;;;;;4.30;2.93;;;17.40;99.90;;;;;;4978223;28;20349;-83
2023/03/18 08:25:58;;;;;;;5.50;3.50;;;17.60;99.90;;;;;;4982955;28;20111;-89
2023/03/18 08:28:24;;;;;;;3.80;2.93;;;17.90;99.90;;;;;;5013441;28;20057;-88
2023/03/18 08:30:54;;;;;;;5.03;3.20;;;18.20;99.90;;;;;;5005112;28;20341;-89
2023/03/18 08:33:21;;;;;;;3.78;2.72;;;18.60;99.90;;;;;;5003448;28;20111;-87
2023/03/18 08:35:47;;;;;;;3.60;2.47;;;18.90;99.90;;;;;;4988650;28;20033;-89
2023/03/18 08:38:13;;;;;;;3.87;2.70;;;19.10;99.90;;;;;;4990523;28;20036;-88
2023/03/18 08:40:41;;;;;;;3.80;2.70;;;19.10;99.90;;;;;;4984528;28;20625;-88
2023/03/18 08:43:08;;;;;;;4.43;2.88;;;19.10;99.90;;;;;;4998419;28;20032;-87
2023/03/18 08:45:35;;;;;;;3.57;2.50;;;19.00;99.90;;;;;;5003565;28;20033;-87
2023/03/18 08:48:01;;;;;;;4.55;2.92;;;19.00;99.90;;;;;;5022530;28;20018;-89
2023/03/18 08:50:28;;;;;;;4.32;2.70;;;18.80;99.90;;;;;;4994703;28;20022;-87
2023/03/18 08:52:58;;;;;;;3.78;2.70;;;18.70;99.90;;;;;;4975752;28;20519;-89
2023/03/18 08:55:33;;;;;;;5.40;2.70;;;18.70;99.90;;;;;;4997795;28;20025;-87
2023/03/18 08:57:59;;;;;;;3.22;2.50;;;18.50;99.90;;;;;;5025636;28;20029;-88
2023/03/18 09:00:26;;;;;;;3.65;2.60;;;18.50;99.90;;;;;;5011119;28;20045;-87
2023/03/18 09:02:52;;;;;;;3.70;2.60;;;18.40;99.90;;;;;;4974752;28;20277;-88
2023/03/18 09:05:19;;;;;;;5.32;2.95;;;18.40;99.90;;;;;;4997275;28;20083;-87
2023/03/18 09:07:45;;;;;;;4.07;2.63;;;18.30;99.90;;;;;;5011599;28;20345;-88
2023/03/18 09:10:13;;;;;;;4.65;2.67;;;18.20;99.90;;;;;;4963533;28;20026;-88
2023/03/18 09:12:41;;;;;;;4.22;2.50;;;18.00;99.90;;;;;;4982630;28;20577;-90
2023/03/18 09:15:09;;;;;;;4.13;2.58;;;18.00;99.90;;;;;;5015538;28;20033;-88
2023/03/18 09:17:37;;;;;;;4.38;2.53;;;17.80;99.90;;;;;;5003345;28;20021;-89
2023/03/18 09:20:03;;;;;;;2.87;2.30;;;17.80;99.90;;;;;;5015838;28;20061;-90
2023/03/18 09:22:29;;;;;;;4.18;2.40;;;17.70;99.90;;;;;;4982598;28;20592;-87
2023/03/18 09:24:55;;;;;;;3.70;2.30;;;17.70;99.90;;;;;;4960603;28;20191;-89
2023/03/18 09:27:20;;;;;;;3.17;2.10;;;17.70;99.90;;;;;;4997387;28;20133;-87
2023/03/18 09:29:47;;;;;;;4.00;2.08;;;17.60;99.90;;;;;;4987157;28;20055;-89
2023/03/18 09:32:13;;;;;;;3.00;2.17;;;17.60;99.90;;;;;;4974068;28;20112;-89
2023/03/18 09:34:38;;;;;;;3.35;2.30;;;17.50;99.90;;;;;;4992762;28;20696;-89
2023/03/18 09:37:04;;;;;;;3.63;2.30;;;17.50;99.90;;;;;;4973904;28;20477;-88
2023/03/18 09:39:29;;;;;;;3.10;2.38;;;17.40;99.90;;;;;;4976580;28;20056;-87
2023/03/18 09:42:17;;;;;;;3.77;2.50;;;17.30;99.90;;;;;;4983898;28;20024;-89
2023/03/18 09:44:42;;;;;;;3.22;2.40;;;17.30;99.90;;;;;;4957462;28;20540;-89
2023/03/18 09:47:27;;;;;;;4.17;2.30;;;17.30;99.90;;;;;;4985834;28;20029;-90
2023/03/18 09:50:00;;;;;;;3.40;2.35;;;17.20;99.90;;;;;;5012483;28;20040;-89
2023/03/18 09:52:37;;;;;;;3.58;2.42;;;17.20;99.90;;;;;;4979522;28;20024;-87
2023/03/18 09:55:28;;;;;;;3.70;2.33;;;17.20;99.90;;;;;;4980081;28;20021;-89
2023/03/18 09:58:02;;;;;;;3.03;2.10;;;17.20;99.90;;;;;;4978343;28;20530;-88
2023/03/18 10:00:35;;;;;;;4.30;2.37;;;17.20;99.90;;;;;;4981265;28;20014;-87
2023/03/18 10:03:14;;;;;;;4.28;2.50;;;17.20;99.90;;;;;;4984529;28;20542;-89
2023/03/18 10:06:15;;;;;;;3.33;2.03;;;17.20;99.90;;;;;;4978462;28;20365;-89
2023/03/18 10:09:12;;;;;;;3.10;2.17;;;17.20;99.90;;;;;;5007690;28;21241;-88
2023/03/18 10:11:41;;;;;;;3.00;1.95;;;17.20;99.90;;;;;;4956761;28;20511;-88
2023/03/18 10:14:25;;;;;;;3.20;2.00;;;17.20;99.90;;;;;;4987170;28;20026;-87
2023/03/18 10:17:21;;;;;;;3.13;2.10;;;17.10;99.90;;;;;;4982400;28;20236;-89
2023/03/18 10:19:54;;;;;;;3.20;2.00;;;17.10;99.90;;;;;;5014998;28;20347;-89
2023/03/18 10:23:09;;;;;;;2.78;1.98;;;17.10;99.90;;;;;;4991313;28;20042;-87
2023/03/18 10:26:01;;;;;;;3.20;2.20;;;17.00;99.90;;;;;;4985342;28;20551;-87
2023/03/18 10:28:39;;;;;;;3.67;1.80;;;17.00;99.90;;;;;;4944900;28;20127;-88
2023/03/18 10:31:40;;;;;;;3.10;2.00;;;16.90;99.90;;;;;;4982992;28;20398;-91
2023/03/18 10:34:14;;;;;;;4.18;2.00;;;16.90;99.90;;;;;;5000130;28;20286;-87
2023/03/18 10:36:54;;;;;;;5.05;2.50;;;16.80;99.90;;;;;;5008491;28;20099;-87
2023/03/18 10:39:23;;;;;;;4.90;2.40;;;16.80;99.90;;;;;;5011490;28;20029;-87
2023/03/18 10:41:51;;;;;;;3.90;2.10;;;16.80;99.90;;;;;;5010232;28;20206;-87
2023/03/18 10:44:17;;;;;;;3.47;2.20;;;16.80;99.90;;;;;;4994947;28;20069;-88
2023/03/18 10:46:45;;;;;;;3.03;2.03;;;16.70;99.90;;;;;;4965221;28;20100;-88
2023/03/18 10:49:26;;;;;;;3.67;2.15;;;16.70;99.90;;;;;;4997315;28;20036;-88
2023/03/18 10:52:17;;;;;;;2.83;2.00;;;16.70;99.90;;;;;;4991970;28;20348;-88
2023/03/18 10:54:51;;;;;;;3.17;1.90;;;16.70;99.90;;;;;;4995183;28;20729;-90
2023/03/18 10:57:20;;;;;;;2.88;1.90;;;16.70;99.90;;;;;;4993506;28;20100;-87
2023/03/18 10:59:47;;;;;;;3.60;1.95;;;16.60;99.90;;;;;;4975510;28;20168;-90
2023/03/18 11:02:28;;;;;;;2.30;1.80;;;16.60;99.90;;;;;;4983814;28;20108;-88
2023/03/18 11:05:23;;;;;;;2.80;1.80;;;16.50;99.90;;;;;;4987199;28;20048;-88
2023/03/18 11:07:59;;;;;;;2.77;1.60;;;16.50;99.90;;;;;;5012489;28;20232;-89
2023/03/18 11:10:34;;;;;;;2.65;1.90;;;16.50;99.90;;;;;;5013752;28;20029;-87
2023/03/18 11:13:05;;;;;;;3.33;1.67;;;16.40;99.90;;;;;;4995607;28;20098;-89
2023/03/18 11:15:42;;;;;;;3.05;1.60;;;16.40;99.90;;;;;;4975899;28;20026;-86
2023/03/18 11:18:15;;;;;;;2.72;1.63;;;16.40;99.90;;;;;;4973065;28;20025;-88
2023/03/18 11:20:44;;;;;;;3.07;1.60;;;16.30;99.90;;;;;;4985085;28;20338;-89
2023/03/18 11:23:44;;;;;;;2.95;1.48;;;16.30;99.90;;;;;;4991768;28;20077;-89
2023/03/18 11:26:19;;;;;;;3.00;1.80;;;16.30;99.90;;;;;;4998220;28;20029;-88
2023/03/18 11:28:46;;;;;;;3.28;1.63;;;16.40;99.90;;;;;;5006103;28;20533;-89
2023/03/18 11:31:17;;;;;;;2.88;1.42;;;16.40;99.90;;;;;;4996448;28;20025;-88
2023/03/18 11:33:43;;;;;;;2.50;1.37;;;16.50;99.90;;;;;;5018343;28;20413;-89
2023/03/18 11:36:18;;;;;;;4.15;1.92;;;16.60;99.90;;;;;;4987281;28;20053;-91
2023/03/18 11:38:56;;;;;;;2.75;1.77;;;16.80;99.90;;;;;;5003790;28;20029;-88
2023/03/18 11:41:24;;;;;;;3.35;1.60;;;16.90;99.90;;;;;;4994732;28;20148;-88
2023/03/18 11:44:14;;;;;;;2.08;1.38;;;17.10;99.90;;;;;;5007931;28;20136;-89
2023/03/18 11:46:52;;;;;;;2.10;1.60;;;17.20;99.90;;;;;;4980260;28;20032;-88
2023/03/18 11:49:24;;;;;;;2.85;1.63;;;17.30;99.90;;;;;;4979016;28;20029;-87
2023/03/18 11:52:15;;;;;;;2.88;1.58;;;17.40;99.90;;;;;;4981249;28;20255;-88
2023/03/18 11:54:44;;;;;;;2.42;1.67;;;17.50;99.90;;;;;;4999127;28;20030;-87
2023/03/18 11:57:46;;;;;;;2.42;1.77;;;17.70;99.90;;;;;;4983877;28;20041;-88
2023/03/18 12:00:36;;;;;;;3.33;1.60;;;17.90;99.90;;;;;;5028893;28;20033;-87
2023/03/18 12:03:02;;;;;;;2.60;1.40;;;18.20;99.90;;;;;;5015551;28;20030;-87
2023/03/18 12:05:34;;;;;;;2.22;1.25;;;18.50;99.90;;;;;;4981618;28;20041;-86
2023/03/18 12:08:17;;;;;;;2.45;1.60;;;18.90;99.90;;;;;;5014431;28;20037;-89
2023/03/18 12:10:54;;;;;;;2.60;1.50;;;19.40;99.90;;;;;;4968432;28;20225;-89
2023/03/18 12:13:32;;;;;;;2.47;1.50;;;20.00;99.90;;;;;;4970988;28;20041;-87
2023/03/18 12:16:10;;;;;;;2.00;1.38;;;20.50;99.90;;;;;;4993761;28;20587;-89
2023/03/18 12:18:55;;;;;;;1.45;1.15;;;20.80;99.90;;;;;;4967088;28;20847;-91
2023/03/18 12:21:39;;;;;;;2.53;1.60;;;21.10;99.90;;;;;;4993897;28;20117;-88
2023/03/18 12:24:26;;;;;;;2.30;1.20;;;21.50;99.90;;;;;;4990886;28;20037;-90
2023/03/18 12:27:14;;;;;;;1.70;1.00;;;21.60;99.90;;;;;;5008571;28;20044;-92
2023/03/18 12:30:01;;;;;;;1.38;1.20;;;21.60;99.90;;;;;;4984776;28;20025;-89
2023/03/18 12:33:03;;;;;;;1.42;1.20;;;21.60;99.80;;;;;;4988951;28;20057;-88
2023/03/18 12:36:09;;;;;;;2.22;1.40;;;21.60;97.30;;;;;;4998381;28;20021;-87
2023/03/18 12:39:22;;;;;;;1.92;1.20;;;21.50;97.40;;;;;;4983747;28;20033;-89
2023/03/18 12:42:09;;;;;;;2.03;1.30;;;21.50;99.90;;;;;;5006449;28;20017;-88
2023/03/18 12:44:42;;;;;;;1.50;1.00;;;21.70;98.20;;;;;;4984327;28;20030;-88
2023/03/18 12:47:14;;;;;;;1.33;1.00;;;21.90;99.20;;;;;;4980137;28;20028;-89
2023/03/18 12:49:56;;;;;;;1.20;0.90;;;22.20;99.90;;;;;;4966730;28;20041;-91
2023/03/18 12:52:51;;;;;;;1.10;0.90;;;22.30;99.60;;;;;;4963866;28;20025;-87
2023/03/18 12:55:24;;;;;;;2.03;1.10;;;22.30;96.40;;;;;;4999638;28;20025;-90
2023/03/18 12:57:58;;;;;;;1.90;1.00;;;22.20;97.50;;;;;;5007395;28;20029;-88
2023/03/18 13:00:27;;;;;;;1.65;1.10;;;22.20;98.60;;;;;;4970106;28;20025;-88
2023/03/18 13:03:26;;;;;;;1.75;1.00;;;22.30;99.50;;;;;;4993907;28;20049;-88
2023/03/18 13:05:55;;;;;;;1.70;1.10;;;22.50;96.20;;;;;;5002371;28;20029;-89